CSCL Fuzhou — ELYA7 — position and weather

sailwx.info

Track history (hours):
 
Tides and Currents Weather Stations Pressure Air Temp Water Temp Dewpoint Dewpoint Depression Visibility Wind Speed Wind Dir Waves Ship Positions

CSCL Fuzhou

Last reported at 2015-Mar-16 21:33 UTC. Time now 2015-Mar-31 00:17 UTC.
Position N 22°25' E 120°13'.
Warning: this ship's position is 14 days out of date.

Length 207.4 m; beam 29.8 m; draft 11.4 m.

Type: Ship (hazmat cat A). MMSI: 636016483.

Date/timePositionNaut miles runAvg speedWind from/ knotsBaromVisibWave heightAir tempDewpointWater temp
2015-Mar-16 21:33N 22°25' E 120°13'10 9.7
2015-Mar-16 20:33N 22°33' E 120°19'0 0.1
2015-Mar-16 19:34N 22°33' E 120°19'0 0.0
2015-Mar-16 18:33N 22°33' E 120°19'0 0.0
2015-Mar-16 17:34N 22°33' E 120°19'0 0.0
2015-Mar-16 16:34N 22°33' E 120°19'0 0.0
2015-Mar-16 15:33N 22°33' E 120°19'0 0.0
2015-Mar-16 14:34N 22°33' E 120°19'0 0.0
2015-Mar-16 13:33N 22°33' E 120°19'0 0.0
2015-Mar-16 12:34N 22°33' E 120°19'0 0.0
2015-Mar-16 11:34N 22°33' E 120°19'0 0.0
2015-Mar-16 10:33N 22°33' E 120°19'0 0.0
2015-Mar-16 09:33N 22°33' E 120°19'0 0.0
2015-Mar-16 08:33N 22°33' E 120°19'0 0.0
2015-Mar-16 07:34N 22°33' E 120°19'0 0.0
2015-Mar-16 06:33N 22°33' E 120°19'0 0.0
2015-Mar-16 05:33N 22°33' E 120°19'0 0.1
2015-Mar-16 04:33N 22°33' E 120°19'0 0.1
2015-Mar-16 03:27N 22°33' E 120°19'0 0.1
2015-Mar-16 02:33N 22°33' E 120°19'1 1.4
2015-Mar-16 01:33N 22°33' E 120°18'3 2.6
2015-Mar-16 00:30N 22°31' E 120°15'0 0.1
2015-Mar-15 23:30N 22°31' E 120°15'0 0.0
2015-Mar-15 22:30N 22°31' E 120°15'0 0.1
2015-Mar-15 21:30N 22°31' E 120°15'0 0.1
2015-Mar-15 20:30N 22°31' E 120°15'0 0.0
2015-Mar-15 19:30N 22°31' E 120°15'0 0.0
2015-Mar-15 18:30N 22°31' E 120°15'0 0.0
2015-Mar-15 17:30N 22°31' E 120°15'0 0.0
2015-Mar-15 16:30N 22°31' E 120°15'0 0.0
2015-Mar-15 15:30N 22°31' E 120°15'0 0.1
2015-Mar-15 14:30N 22°31' E 120°15'0 0.1
2015-Mar-15 13:30N 22°32' E 120°15'0 0.0
2015-Mar-15 12:30N 22°32' E 120°15'0 0.1
2015-Mar-15 11:30N 22°32' E 120°15'0 0.0
2015-Mar-15 10:30N 22°32' E 120°15'0 0.0
2015-Mar-15 09:30N 22°32' E 120°15'0 0.0
2015-Mar-15 08:30N 22°32' E 120°15'0 0.0
2015-Mar-15 07:33N 22°32' E 120°15'0 0.0
2015-Mar-15 06:33N 22°32' E 120°15'0 0.2
2015-Mar-15 05:33N 22°31' E 120°15'0 0.1
2015-Mar-15 04:33N 22°31' E 120°15'0 0.1
2015-Mar-15 03:33N 22°31' E 120°15'0 0.1
2015-Mar-15 02:33N 22°31' E 120°15'0 0.1
2015-Mar-15 01:33N 22°31' E 120°15'0 0.0
2015-Mar-15 00:33N 22°31' E 120°15'0 0.0
2015-Mar-14 23:33N 22°31' E 120°15'0 0.0
2015-Mar-14 22:33N 22°31' E 120°15'0 0.0
2015-Mar-14 21:33N 22°31' E 120°15'0 0.0
2015-Mar-14 20:33N 22°31' E 120°15'0 0.0
2015-Mar-14 19:33N 22°31' E 120°15'0 0.0
2015-Mar-14 18:33N 22°31' E 120°15'0 0.1
2015-Mar-14 17:33N 22°31' E 120°15'0 0.1
2015-Mar-14 16:33N 22°31' E 120°15'0 0.0
2015-Mar-14 15:27N 22°31' E 120°15'0 0.0
2015-Mar-14 14:33N 22°31' E 120°15'0 0.0
2015-Mar-14 13:33N 22°31' E 120°15'0 0.2
2015-Mar-14 12:33N 22°31' E 120°15'0 0.3
2015-Mar-14 11:33N 22°31' E 120°15'10 9.5
2015-Mar-14 10:33N 22°22' E 120°13'1211.7
2015-Mar-14 09:33N 22°10' E 120°12'1612.2
2015-Mar-14 08:15N 21°54' E 120°10'912.8
2015-Mar-14 07:33N 21°45' E 120°10'  
2015-Mar-07 04:34N 22°21' E 120°13'1212.5
2015-Mar-07 03:33N 22°33' E 120°17'2 2.3
2015-Mar-07 02:28N 22°33' E 120°20'0 0.0
2015-Mar-07 01:28N 22°33' E 120°20'0 0.0
2015-Mar-07 00:22N 22°33' E 120°20'  
Track history (hours):
 
Tides and Currents Weather Stations Pressure Air Temp Water Temp Dewpoint Dewpoint Depression Visibility Wind Speed Wind Dir Waves Ship Positions

CSCL Fuzhou

Last reported at 2015-Mar-16 21:33 UTC. Time now 2015-Mar-31 00:17 UTC.
Position N 22°25' E 120°13'.
Warning: this ship's position is 14 days out of date.

Length 207.4 m; beam 29.8 m; draft 11.4 m.

Type: Ship (hazmat cat A). MMSI: 636016483.

Date/timePositionNaut miles runAvg speedWind from/ knotsBaromVisibWave heightAir tempDewpointWater temp
2015-Mar-16 21:33N 22°25' E 120°13'10 9.7
2015-Mar-16 20:33N 22°33' E 120°19'0 0.1
2015-Mar-16 19:34N 22°33' E 120°19'0 0.0
2015-Mar-16 18:33N 22°33' E 120°19'0 0.0
2015-Mar-16 17:34N 22°33' E 120°19'0 0.0
2015-Mar-16 16:34N 22°33' E 120°19'0 0.0
2015-Mar-16 15:33N 22°33' E 120°19'0 0.0
2015-Mar-16 14:34N 22°33' E 120°19'0 0.0
2015-Mar-16 13:33N 22°33' E 120°19'0 0.0
2015-Mar-16 12:34N 22°33' E 120°19'0 0.0
2015-Mar-16 11:34N 22°33' E 120°19'0 0.0
2015-Mar-16 10:33N 22°33' E 120°19'0 0.0
2015-Mar-16 09:33N 22°33' E 120°19'0 0.0
2015-Mar-16 08:33N 22°33' E 120°19'0 0.0
2015-Mar-16 07:34N 22°33' E 120°19'0 0.0
2015-Mar-16 06:33N 22°33' E 120°19'0 0.0
2015-Mar-16 05:33N 22°33' E 120°19'0 0.1
2015-Mar-16 04:33N 22°33' E 120°19'0 0.1
2015-Mar-16 03:27N 22°33' E 120°19'0 0.1
2015-Mar-16 02:33N 22°33' E 120°19'1 1.4
2015-Mar-16 01:33N 22°33' E 120°18'3 2.6
2015-Mar-16 00:30N 22°31' E 120°15'0 0.1
2015-Mar-15 23:30N 22°31' E 120°15'0 0.0
2015-Mar-15 22:30N 22°31' E 120°15'0 0.1
2015-Mar-15 21:30N 22°31' E 120°15'0 0.1
2015-Mar-15 20:30N 22°31' E 120°15'0 0.0
2015-Mar-15 19:30N 22°31' E 120°15'0 0.0
2015-Mar-15 18:30N 22°31' E 120°15'0 0.0
2015-Mar-15 17:30N 22°31' E 120°15'0 0.0
2015-Mar-15 16:30N 22°31' E 120°15'0 0.0
2015-Mar-15 15:30N 22°31' E 120°15'0 0.1
2015-Mar-15 14:30N 22°31' E 120°15'0 0.1
2015-Mar-15 13:30N 22°32' E 120°15'0 0.0
2015-Mar-15 12:30N 22°32' E 120°15'0 0.1
2015-Mar-15 11:30N 22°32' E 120°15'0 0.0
2015-Mar-15 10:30N 22°32' E 120°15'0 0.0
2015-Mar-15 09:30N 22°32' E 120°15'0 0.0
2015-Mar-15 08:30N 22°32' E 120°15'0 0.0
2015-Mar-15 07:33N 22°32' E 120°15'0 0.0
2015-Mar-15 06:33N 22°32' E 120°15'0 0.2
2015-Mar-15 05:33N 22°31' E 120°15'0 0.1
2015-Mar-15 04:33N 22°31' E 120°15'0 0.1
2015-Mar-15 03:33N 22°31' E 120°15'0 0.1
2015-Mar-15 02:33N 22°31' E 120°15'0 0.1
2015-Mar-15 01:33N 22°31' E 120°15'0 0.0
2015-Mar-15 00:33N 22°31' E 120°15'0 0.0
2015-Mar-14 23:33N 22°31' E 120°15'0 0.0
2015-Mar-14 22:33N 22°31' E 120°15'0 0.0
2015-Mar-14 21:33N 22°31' E 120°15'0 0.0
2015-Mar-14 20:33N 22°31' E 120°15'0 0.0
2015-Mar-14 19:33N 22°31' E 120°15'0 0.0
2015-Mar-14 18:33N 22°31' E 120°15'0 0.1
2015-Mar-14 17:33N 22°31' E 120°15'0 0.1
2015-Mar-14 16:33N 22°31' E 120°15'0 0.0
2015-Mar-14 15:27N 22°31' E 120°15'0 0.0
2015-Mar-14 14:33N 22°31' E 120°15'0 0.0
2015-Mar-14 13:33N 22°31' E 120°15'0 0.2
2015-Mar-14 12:33N 22°31' E 120°15'0 0.3
2015-Mar-14 11:33N 22°31' E 120°15'10 9.5
2015-Mar-14 10:33N 22°22' E 120°13'1211.7
2015-Mar-14 09:33N 22°10' E 120°12'1612.2
2015-Mar-14 08:15N 21°54' E 120°10'912.8
2015-Mar-14 07:33N 21°45' E 120°10'  
2015-Mar-07 04:34N 22°21' E 120°13'1212.5
2015-Mar-07 03:33N 22°33' E 120°17'2 2.3
2015-Mar-07 02:28N 22°33' E 120°20'0 0.0
2015-Mar-07 01:28N 22°33' E 120°20'0 0.0
2015-Mar-07 00:22N 22°33' E 120°20'  

Dump ship's entire track history